Terminal Aerodrome Forecast
Issued by NWS

Current Version | Previous Version | Text Only | Print | Product List | Glossary On
Versions: 1 2 3 4 5 6 7 8 9 10 11 12 13 14 15 16 17 18 19 20 21 22 23 24
000
FTUS44 KOUN 271737
TAFHBR
TAF
KHBR 271737Z 2718/2818 04008KT P6SM SKC
     FM272300 10009KT P6SM SCT200
     FM281000 10010KT P6SM OVC020
     FM281400 11012G18KT P6SM OVC015
      TEMPO 2814/2818 4SM -TSRA BR OVC008CB=

USA.gov is the U.S. government's official web portal to all federal, state and local government web resources and services.